createdAt,value
2019-03-16T00:01:08.617Z,97741.75
2019-03-16T00:03:40.214Z,97755.52
2019-03-16T00:06:11.792Z,97754.59
2019-03-16T00:08:43.385Z,97768.64
2019-03-16T00:11:14.944Z,97771.34
2019-03-16T00:13:46.508Z,97761.86
2019-03-16T00:16:18.097Z,97761.49
2019-03-16T00:18:49.786Z,97761.98
2019-03-16T00:21:21.361Z,97752.83
2019-03-16T00:23:53.118Z,97759.95
2019-03-16T00:26:24.686Z,97763.86
2019-03-16T00:28:56.272Z,97767.58
2019-03-16T00:31:27.815Z,97770.77
2019-03-16T00:33:59.550Z,97773.51
2019-03-16T00:36:31.139Z,97771.99
2019-03-16T00:39:02.739Z,97775.80
2019-03-16T00:41:34.371Z,97774.23
2019-03-16T00:44:06.294Z,97775.80
2019-03-16T00:46:37.880Z,97766.28
2019-03-16T00:49:09.475Z,97773.30
2019-03-16T00:51:41.039Z,97772.23
2019-03-16T00:54:12.621Z,97769.27
2019-03-16T00:56:44.180Z,97780.20
2019-03-16T00:59:15.748Z,97783.88
2019-03-16T01:01:47.363Z,97782.45
2019-03-16T01:04:18.922Z,97773.91
2019-03-16T01:06:50.532Z,97793.52
2019-03-16T01:09:22.115Z,97789.72
2019-03-16T01:11:53.698Z,97780.33
2019-03-16T01:14:25.258Z,97776.07
2019-03-16T01:16:56.857Z,97785.80
2019-03-16T01:19:28.419Z,97785.91
2019-03-16T01:22:00.042Z,97787.95
2019-03-16T01:24:31.607Z,97785.55
2019-03-16T01:27:04.654Z,97788.77
2019-03-16T01:29:36.233Z,97789.48
2019-03-16T01:32:07.806Z,97787.84
2019-03-16T01:34:39.414Z,97787.47
2019-03-16T01:37:11.003Z,97781.88
2019-03-16T01:39:42.566Z,97785.55
2019-03-16T01:42:14.156Z,97792.45
2019-03-16T01:44:45.713Z,97790.54
2019-03-16T01:47:17.278Z,97790.91
2019-03-16T01:49:48.849Z,97789.72
2019-03-16T01:52:20.402Z,97798.50
2019-03-16T01:54:51.975Z,97790.08
2019-03-16T01:57:23.526Z,97805.16
2019-03-16T01:59:55.201Z,97792.91
2019-03-16T02:02:26.754Z,97800.27
2019-03-16T02:04:58.364Z,97804.44
2019-03-16T02:07:29.989Z,97785.07
2019-03-16T02:10:01.546Z,97800.63
2019-03-16T02:12:33.105Z,97798.51
2019-03-16T02:15:04.903Z,97798.63
2019-03-16T02:17:36.467Z,97791.97
2019-03-16T02:20:08.256Z,97803.00
2019-03-16T02:22:39.826Z,97790.87
2019-03-16T02:25:11.486Z,97791.85
2019-03-16T02:27:43.040Z,97791.48
2019-03-16T02:30:14.826Z,97788.02
2019-03-16T02:32:46.386Z,97786.02
2019-03-16T02:35:17.952Z,97794.34
2019-03-16T02:37:49.512Z,97793.03
2019-03-16T02:40:21.094Z,97787.92
2019-03-16T02:42:52.702Z,97792.70
2019-03-16T02:45:24.255Z,97789.48
2019-03-16T02:47:55.828Z,97796.63
2019-03-16T02:50:27.417Z,97798.14
2019-03-16T02:52:58.969Z,97789.11
2019-03-16T02:55:30.542Z,97797.78
2019-03-16T02:58:02.111Z,97787.56
2019-03-16T03:00:33.748Z,97805.41
2019-03-16T03:03:05.301Z,97796.50
2019-03-16T03:05:36.867Z,97789.36
2019-03-16T03:08:08.410Z,97804.09
2019-03-16T03:10:40.010Z,97797.83
2019-03-16T03:13:13.636Z,97798.98
2019-03-16T03:15:44.853Z,97800.42
2019-03-16T03:18:16.403Z,97806.83
2019-03-16T03:20:47.954Z,97803.30
2019-03-16T03:23:19.534Z,97803.42
2019-03-16T03:25:51.125Z,97803.55
2019-03-16T03:28:22.668Z,97811.27
2019-03-16T03:30:54.397Z,97818.86
2019-03-16T03:33:25.931Z,97802.11
2019-03-16T03:35:57.509Z,97801.38
2019-03-16T03:38:29.079Z,97818.38
2019-03-16T03:41:01.896Z,97811.02
2019-03-16T03:43:33.706Z,97814.69
2019-03-16T03:46:05.250Z,97822.54
2019-03-16T03:48:36.862Z,97804.00
2019-03-16T03:51:08.404Z,97805.09
2019-03-16T03:53:41.334Z,97810.07
2019-03-16T03:56:13.139Z,97814.34
2019-03-16T03:58:45.799Z,97813.86
2019-03-16T04:01:17.352Z,97812.10
2019-03-16T04:03:48.943Z,97815.28
2019-03-16T04:06:20.506Z,97818.27
2019-03-16T04:08:52.064Z,97810.55
2019-03-16T04:11:23.623Z,97809.48
2019-03-16T04:13:55.187Z,97818.03
2019-03-16T04:16:26.735Z,97822.31
2019-03-16T04:18:58.330Z,97820.03
2019-03-16T04:21:29.912Z,97827.05
2019-03-16T04:24:01.501Z,97816.26
2019-03-16T04:26:33.064Z,97822.42
2019-03-16T04:29:04.622Z,97827.42
2019-03-16T04:31:36.174Z,97825.76
2019-03-16T04:34:07.783Z,97833.59
2019-03-16T04:36:39.328Z,97827.16
2019-03-16T04:39:10.903Z,97828.72
2019-03-16T04:41:42.463Z,97830.50
2019-03-16T04:44:14.026Z,97826.83
2019-03-16T04:46:45.605Z,97830.11
2019-03-16T04:49:17.147Z,97834.98
2019-03-16T04:51:48.714Z,97830.00
2019-03-16T04:54:20.343Z,97825.38
2019-03-16T04:56:51.903Z,97833.67
2019-03-16T04:59:23.438Z,97828.94
2019-03-16T05:01:55.018Z,97824.53
2019-03-16T05:04:26.577Z,97825.38
2019-03-16T05:06:58.159Z,97828.25
2019-03-16T05:09:29.736Z,97826.83
2019-03-16T05:12:01.308Z,97830.84
2019-03-16T05:14:32.924Z,97830.97
2019-03-16T05:17:04.508Z,97811.48
2019-03-16T05:19:36.055Z,97822.66
2019-03-16T05:22:07.611Z,97811.84
2019-03-16T05:24:39.166Z,97818.38
2019-03-16T05:27:10.720Z,97818.35
2019-03-16T05:29:42.300Z,97820.75
2019-03-16T05:32:13.865Z,97814.43
2019-03-16T05:34:55.973Z,97821.09
2019-03-16T05:37:18.706Z,97831.67
2019-03-16T05:39:50.271Z,97824.53
2019-03-16T05:42:21.828Z,97836.91
2019-03-16T05:44:53.412Z,97832.73
2019-03-16T05:47:24.966Z,97831.80
2019-03-16T05:49:56.552Z,97833.81
2019-03-16T05:52:28.104Z,97841.52
2019-03-16T05:54:59.704Z,97848.55
2019-03-16T05:57:31.257Z,97849.61
2019-03-16T06:00:02.840Z,97842.71
2019-03-16T06:02:34.398Z,97851.50
2019-03-16T06:05:11.120Z,97847.48
2019-03-16T06:07:39.666Z,97844.96
2019-03-16T06:10:11.270Z,97860.06
2019-03-16T06:12:46.606Z,97861.48
2019-03-16T06:15:17.876Z,97854.48
2019-03-16T06:17:49.435Z,97871.11
2019-03-16T06:20:20.997Z,97863.75
2019-03-16T06:22:52.653Z,97880.26
2019-03-16T06:25:24.231Z,97869.80
2019-03-16T06:27:55.788Z,97877.77
2019-03-16T06:30:27.506Z,97875.28
2019-03-16T06:32:59.075Z,97881.80
2019-03-16T06:35:30.670Z,97881.56
2019-03-16T06:38:02.244Z,97878.95
2019-03-16T06:40:33.862Z,97887.77
2019-03-16T06:43:05.425Z,97897.27
2019-03-16T06:45:36.974Z,97896.08
2019-03-16T06:48:08.572Z,97905.23
2019-03-16T06:50:40.288Z,97907.60
2019-03-16T06:53:11.836Z,97895.72
2019-03-16T06:55:43.410Z,97902.73
2019-03-16T06:58:16.594Z,97908.30
2019-03-16T07:00:48.194Z,97921.38
2019-03-16T07:03:19.761Z,97912.11
2019-03-16T07:05:51.338Z,97911.89
2019-03-16T07:08:22.910Z,97920.31
2019-03-16T07:10:54.556Z,97911.52
2019-03-16T07:13:26.121Z,97923.65
2019-03-16T07:15:57.684Z,97914.97
2019-03-16T07:18:30.342Z,97916.52
2019-03-16T07:21:01.920Z,97920.56
2019-03-16T07:23:33.783Z,97925.68
2019-03-16T07:26:14.853Z,97923.05
2019-03-16T07:28:38.859Z,97926.38
2019-03-16T07:31:10.437Z,97920.67
2019-03-16T07:33:42.026Z,97932.56
2019-03-16T07:36:13.607Z,97928.64
2019-03-16T07:38:45.221Z,97929.23
2019-03-16T07:41:18.376Z,97927.67
2019-03-16T07:43:50.016Z,97931.48
2019-03-16T07:46:21.574Z,97923.41
2019-03-16T07:48:53.179Z,97925.78
2019-03-16T07:51:24.740Z,97929.57
2019-03-16T07:53:56.316Z,97925.55
2019-03-16T07:56:27.889Z,97935.42
2019-03-16T07:58:59.468Z,97934.46
2019-03-16T08:01:31.031Z,97939.09
2019-03-16T08:04:02.756Z,97936.00
2019-03-16T08:06:34.357Z,97947.75
2019-03-16T08:09:07.490Z,97954.42
2019-03-16T08:11:39.176Z,97955.01
2019-03-16T08:14:10.844Z,97950.25
2019-03-16T08:16:42.415Z,97956.09
2019-03-16T08:19:14.039Z,97950.60
2019-03-16T08:21:45.602Z,97961.91
2019-03-16T08:24:18.293Z,97959.90
2019-03-16T08:26:49.867Z,97958.45
2019-03-16T08:29:21.489Z,97976.62
2019-03-16T08:31:53.072Z,97976.16
2019-03-16T08:34:24.629Z,97965.45
2019-03-16T08:36:56.224Z,97983.27
2019-03-16T08:39:27.785Z,97978.75
2019-03-16T08:41:59.394Z,97981.25
2019-03-16T08:44:30.977Z,97978.78
2019-03-16T08:47:02.644Z,97983.15
2019-03-16T08:49:34.211Z,97974.37
2019-03-16T08:52:05.792Z,97977.36
2019-03-16T08:54:37.362Z,97978.66
2019-03-16T08:57:08.962Z,97987.94
2019-03-16T08:59:40.558Z,97982.94
2019-03-16T09:02:12.165Z,97977.70
2019-03-16T09:04:43.758Z,97978.55
2019-03-16T09:07:15.727Z,97982.11
2019-03-16T09:09:47.312Z,97984.64
2019-03-16T09:12:18.894Z,97977.62
2019-03-16T09:14:50.459Z,97980.95
2019-03-16T09:17:22.059Z,97972.99
2019-03-16T09:19:53.631Z,97972.38
2019-03-16T09:22:25.416Z,97966.67
2019-03-16T09:24:56.996Z,97967.39
2019-03-16T09:27:31.433Z,97964.77
2019-03-16T09:30:02.012Z,97963.45
2019-03-16T09:32:33.631Z,97979.38
2019-03-16T09:35:05.447Z,97972.26
2019-03-16T09:37:37.041Z,97973.11
2019-03-16T09:40:09.366Z,97973.34
2019-03-16T09:42:40.970Z,97968.24
2019-03-16T09:45:12.614Z,97964.05
2019-03-16T09:47:45.576Z,97957.17
2019-03-16T09:50:17.199Z,97961.91
2019-03-16T09:52:48.806Z,97948.94
2019-03-16T09:55:20.357Z,97947.42
2019-03-16T09:57:51.962Z,97942.66
2019-03-16T10:00:23.521Z,97947.50
2019-03-16T10:02:55.122Z,97953.09
2019-03-16T10:05:26.728Z,97942.27
2019-03-16T10:07:58.302Z,97948.81
2019-03-16T10:10:29.869Z,97940.72
2019-03-16T10:13:01.467Z,97951.55
2019-03-16T10:15:33.156Z,97964.52
2019-03-16T10:18:04.770Z,97958.09
2019-03-16T10:20:36.353Z,97949.78
2019-03-16T10:23:07.989Z,97942.41
2019-03-16T10:25:39.613Z,97937.53
2019-03-16T10:28:11.516Z,97927.21
2019-03-16T10:30:43.117Z,97930.98
2019-03-16T10:33:14.711Z,97932.78
2019-03-16T10:35:46.355Z,97930.78
2019-03-16T10:38:18.104Z,97928.03
2019-03-16T10:40:49.709Z,97933.97
2019-03-16T10:43:21.493Z,97933.73
2019-03-16T10:45:53.115Z,97929.91
2019-03-16T10:48:24.810Z,97937.19
2019-03-16T10:50:56.406Z,97935.36
2019-03-16T10:53:28.011Z,97933.69
2019-03-16T10:55:59.617Z,97921.28
2019-03-16T10:58:31.161Z,97925.33
2019-03-16T11:01:02.875Z,97928.64
2019-03-16T11:03:34.483Z,97922.72
2019-03-16T11:06:06.102Z,97916.66
2019-03-16T11:08:37.652Z,97932.98
2019-03-16T11:11:09.225Z,97926.56
2019-03-16T11:13:40.925Z,97926.13
2019-03-16T11:16:12.539Z,97931.03
2019-03-16T11:18:44.127Z,97926.50
2019-03-16T11:21:15.699Z,97931.74
2019-03-16T11:23:47.311Z,97924.70
2019-03-16T11:26:18.874Z,97921.72
2019-03-16T11:28:50.538Z,97917.91
2019-03-16T11:31:22.124Z,97917.06
2019-03-16T11:33:53.750Z,97911.47
2019-03-16T11:36:25.302Z,97912.53
2019-03-16T11:38:56.937Z,97916.05
2019-03-16T11:41:28.519Z,97904.41
2019-03-16T11:44:00.147Z,97904.02
2019-03-16T11:46:31.730Z,97902.83
2019-03-16T11:49:03.332Z,97898.84
2019-03-16T11:51:34.929Z,97896.91
2019-03-16T11:54:06.515Z,97890.82
2019-03-16T11:56:38.171Z,97890.31
2019-03-16T11:59:21.184Z,97878.91
2019-03-16T12:01:43.046Z,97875.05
2019-03-16T12:04:14.638Z,97873.12
2019-03-16T12:06:46.369Z,97870.49
2019-03-16T12:09:17.975Z,97870.36
2019-03-16T12:11:49.556Z,97864.61
2019-03-16T12:14:21.144Z,97864.28
2019-03-16T12:16:52.726Z,97862.97
2019-03-16T12:19:24.310Z,97854.92
2019-03-16T12:21:55.925Z,97857.77
2019-03-16T12:24:27.506Z,97863.84
2019-03-16T12:26:59.115Z,97865.41
2019-03-16T12:29:34.176Z,97856.59
2019-03-16T12:32:03.993Z,97851.32
2019-03-16T12:34:35.594Z,97847.69
2019-03-16T12:37:07.162Z,97846.47
2019-03-16T12:39:39.003Z,97844.11
2019-03-16T12:42:10.612Z,97839.84
2019-03-16T12:44:42.245Z,97838.13
2019-03-16T12:47:13.811Z,97837.02
2019-03-16T12:49:45.409Z,97828.63
2019-03-16T12:52:16.953Z,97823.97
2019-03-16T12:54:48.576Z,97817.07
2019-03-16T12:57:20.119Z,97807.80
2019-03-16T12:59:51.910Z,97803.78
2019-03-16T13:02:23.483Z,97803.92
2019-03-16T13:04:55.454Z,97806.01
2019-03-16T13:07:27.083Z,97800.52
2019-03-16T13:09:58.700Z,97787.67
2019-03-16T13:12:30.300Z,97790.07
2019-03-16T13:15:01.917Z,97789.94
2019-03-16T13:17:33.653Z,97781.11
2019-03-16T13:20:06.504Z,97777.69
2019-03-16T13:22:38.069Z,97778.94
2019-03-16T13:25:10.409Z,97781.72
2019-03-16T13:27:41.965Z,97772.73
2019-03-16T13:30:15.043Z,97767.67
2019-03-16T13:32:46.623Z,97762.49
2019-03-16T13:35:18.237Z,97760.36
2019-03-16T13:37:49.929Z,97764.91
2019-03-16T13:40:21.507Z,97764.20
2019-03-16T13:42:53.103Z,97756.36
2019-03-16T13:45:24.717Z,97744.16
2019-03-16T13:47:56.344Z,97741.88
2019-03-16T13:50:27.930Z,97743.59
2019-03-16T13:52:59.779Z,97739.76
2019-03-16T13:55:31.385Z,97734.82
2019-03-16T13:58:02.969Z,97732.83
2019-03-16T14:00:34.606Z,97738.27
2019-03-16T14:03:06.455Z,97728.32
2019-03-16T14:05:38.095Z,97717.38
2019-03-16T14:08:09.653Z,97729.45
2019-03-16T14:10:41.552Z,97721.43
2019-03-16T14:13:13.158Z,97714.47
2019-03-16T14:15:44.737Z,97719.80
2019-03-16T14:18:16.332Z,97715.22
2019-03-16T14:20:48.538Z,97710.74
2019-03-16T14:23:20.131Z,97715.18
2019-03-16T14:25:51.760Z,97715.78
2019-03-16T14:28:23.669Z,97714.07
2019-03-16T14:30:55.619Z,97710.31
2019-03-16T14:33:27.467Z,97702.36
2019-03-16T14:36:00.390Z,97703.25
2019-03-16T14:38:32.027Z,97697.50
2019-03-16T14:41:03.631Z,97699.98
2019-03-16T14:43:35.287Z,97701.09
2019-03-16T14:46:06.850Z,97694.64
2019-03-16T14:48:38.416Z,97697.31
2019-03-16T14:51:10.162Z,97690.17
2019-03-16T14:53:41.940Z,97692.48
2019-03-16T14:56:13.540Z,97688.41
2019-03-16T14:58:45.099Z,97687.64
2019-03-16T15:01:16.743Z,97685.67
2019-03-16T15:03:48.377Z,97682.37
2019-03-16T15:06:20.084Z,97677.35
2019-03-16T15:08:51.860Z,97677.20
2019-03-16T15:11:23.623Z,97679.34
2019-03-16T15:13:56.405Z,97677.05
2019-03-16T15:16:28.007Z,97672.44
2019-03-16T15:18:59.616Z,97667.99
2019-03-16T15:21:31.196Z,97661.48
2019-03-16T15:24:02.766Z,97673.93
2019-03-16T15:26:34.316Z,97673.21
2019-03-16T15:29:05.991Z,97672.06
2019-03-16T15:31:37.573Z,97669.74
2019-03-16T15:34:09.170Z,97668.42
2019-03-16T15:36:41.119Z,97664.95
2019-03-16T15:39:12.775Z,97665.80
2019-03-16T15:41:44.366Z,97661.42
2019-03-16T15:44:15.974Z,97661.05
2019-03-16T15:46:47.682Z,97655.52
2019-03-16T15:49:19.282Z,97647.41
2019-03-16T15:51:50.907Z,97649.38
2019-03-16T15:54:22.500Z,97646.27
2019-03-16T15:56:54.117Z,97641.34
2019-03-16T15:59:25.730Z,97636.84
2019-03-16T16:01:57.282Z,97634.27
2019-03-16T16:04:28.905Z,97632.61
2019-03-16T16:07:00.503Z,97618.82
2019-03-16T16:09:32.107Z,97614.48
2019-03-16T16:12:03.711Z,97605.30
2019-03-16T16:14:35.583Z,97603.03
2019-03-16T16:17:07.226Z,97603.39
2019-03-16T16:19:39.906Z,97590.42
2019-03-16T16:22:11.544Z,97583.50
2019-03-16T16:24:43.275Z,97587.80
2019-03-16T16:27:14.932Z,97584.27
2019-03-16T16:29:46.705Z,97586.76
2019-03-16T16:32:18.345Z,97580.80
2019-03-16T16:34:49.940Z,97581.56
2019-03-16T16:37:21.547Z,97591.65
2019-03-16T16:39:53.333Z,97582.25
2019-03-16T16:42:25.950Z,97585.10
2019-03-16T16:44:57.533Z,97582.05
2019-03-16T16:47:29.196Z,97575.55
2019-03-16T16:50:00.793Z,97575.13
2019-03-16T16:52:32.398Z,97571.47
2019-03-16T16:55:03.944Z,97570.27
2019-03-16T16:57:35.567Z,97573.06
2019-03-16T17:00:12.664Z,97569.13
2019-03-16T17:02:44.389Z,97563.38
2019-03-16T17:05:15.925Z,97566.95
2019-03-16T17:07:47.602Z,97570.58
2019-03-16T17:10:19.450Z,97563.81
2019-03-16T17:12:51.087Z,97558.38
2019-03-16T17:15:22.674Z,97554.03
2019-03-16T17:17:54.473Z,97553.34
2019-03-16T17:20:26.146Z,97547.88
2019-03-16T17:22:57.745Z,97543.59
2019-03-16T17:25:29.369Z,97538.30
2019-03-16T17:28:01.017Z,97540.94
2019-03-16T17:30:32.646Z,97537.02
2019-03-16T17:33:04.352Z,97534.04
2019-03-16T17:35:35.939Z,97531.42
2019-03-16T17:38:07.557Z,97529.73
2019-03-16T17:40:39.214Z,97519.36
2019-03-16T17:43:10.870Z,97514.22
2019-03-16T17:45:42.832Z,97510.83
2019-03-16T17:48:14.625Z,97513.08
2019-03-16T17:50:46.581Z,97508.24
2019-03-16T17:53:18.365Z,97512.55
2019-03-16T17:55:49.955Z,97508.20
2019-03-16T17:58:21.686Z,97510.23
2019-03-16T18:00:54.409Z,97506.60
2019-03-16T18:03:26.022Z,97504.63
2019-03-16T18:05:57.615Z,97505.71
2019-03-16T18:08:29.199Z,97509.63
2019-03-16T18:11:00.819Z,97506.53
2019-03-16T18:13:32.396Z,97509.27
2019-03-16T18:16:03.981Z,97511.45
2019-03-16T18:18:36.554Z,97513.84
2019-03-16T18:21:08.336Z,97512.92
2019-03-16T18:23:41.030Z,97510.92
2019-03-16T18:26:13.717Z,97507.38
2019-03-16T18:28:45.342Z,97509.77
2019-03-16T18:31:17.696Z,97509.08
2019-03-16T18:33:49.243Z,97500.31
2019-03-16T18:36:20.830Z,97497.88
2019-03-16T18:38:52.429Z,97503.25
2019-03-16T18:41:24.118Z,97493.92
2019-03-16T18:43:55.714Z,97492.14
2019-03-16T18:46:27.373Z,97486.97
2019-03-16T18:48:58.992Z,97491.83
2019-03-16T18:51:30.562Z,97503.72
2019-03-16T18:54:02.161Z,97500.41
2019-03-16T18:56:33.813Z,97497.23
2019-03-16T18:59:05.425Z,97496.55
2019-03-16T19:01:37.015Z,97490.28
2019-03-16T19:04:08.651Z,97494.08
2019-03-16T19:06:40.268Z,97486.89
2019-03-16T19:09:11.856Z,97478.37
2019-03-16T19:11:43.455Z,97483.02
2019-03-16T19:14:15.068Z,97478.56
2019-03-16T19:16:46.689Z,97477.05
2019-03-16T19:19:18.302Z,97474.34
2019-03-16T19:21:49.948Z,97480.26
2019-03-16T19:24:21.612Z,97478.02
2019-03-16T19:26:53.225Z,97467.34
2019-03-16T19:29:24.840Z,97467.47
2019-03-16T19:31:57.503Z,97475.75
2019-03-16T19:34:29.215Z,97465.80
2019-03-16T19:37:00.835Z,97463.31
2019-03-16T19:39:32.494Z,97460.95
2019-03-16T19:42:04.122Z,97455.85
2019-03-16T19:44:35.784Z,97457.27
2019-03-16T19:47:07.436Z,97453.61
2019-03-16T19:49:39.138Z,97452.05
2019-03-16T19:52:10.732Z,97456.06
2019-03-16T19:54:42.374Z,97447.09
2019-03-16T19:57:16.177Z,97443.50
2019-03-16T19:59:48.403Z,97438.29
2019-03-16T20:02:20.105Z,97431.77
2019-03-16T20:04:51.759Z,97432.09
2019-03-16T20:07:23.371Z,97429.61
2019-03-16T20:09:55.013Z,97425.91
2019-03-16T20:12:27.847Z,97428.39
2019-03-16T20:14:59.513Z,97428.14
2019-03-16T20:17:31.180Z,97425.45
2019-03-16T20:20:03.996Z,97422.97
2019-03-16T20:22:35.598Z,97423.42
2019-03-16T20:25:07.434Z,97420.48
2019-03-16T20:27:39.094Z,97419.05
2019-03-16T20:30:11.474Z,97419.05
2019-03-16T20:32:43.097Z,97416.56
2019-03-16T20:35:14.803Z,97415.87
2019-03-16T20:37:46.540Z,97415.99
2019-03-16T20:40:18.182Z,97406.62
2019-03-16T20:42:49.784Z,97411.59
2019-03-16T20:45:21.615Z,97407.92
2019-03-16T20:47:53.201Z,97409.59
2019-03-16T20:50:24.854Z,97406.26
2019-03-16T20:52:56.418Z,97407.93
2019-03-16T20:55:28.144Z,97408.91
2019-03-16T20:57:59.811Z,97415.91
2019-03-16T21:00:31.490Z,97404.88
2019-03-16T21:03:15.274Z,97413.79
2019-03-16T21:05:36.416Z,97407.72
2019-03-16T21:08:08.092Z,97405.84
2019-03-16T21:10:39.811Z,97407.14
2019-03-16T21:13:11.448Z,97412.60
2019-03-16T21:15:43.033Z,97400.66
2019-03-16T21:18:14.691Z,97404.56
2019-03-16T21:20:46.275Z,97405.99
2019-03-16T21:23:17.879Z,97401.84
2019-03-16T21:25:49.519Z,97407.88
2019-03-16T21:28:21.137Z,97405.99
2019-03-16T21:30:52.766Z,97398.53
2019-03-16T21:33:29.393Z,97404.13
2019-03-16T21:35:57.670Z,97405.31
2019-03-16T21:38:29.272Z,97398.45
2019-03-16T21:41:00.889Z,97398.80
2019-03-16T21:43:32.509Z,97394.52
2019-03-16T21:46:05.177Z,97394.15
2019-03-16T21:48:36.767Z,97396.75
2019-03-16T21:51:08.429Z,97389.63
2019-03-16T21:53:40.039Z,97391.34
2019-03-16T21:56:11.626Z,97388.61
2019-03-16T21:58:43.283Z,97381.52
2019-03-16T22:01:14.871Z,97380.20
2019-03-16T22:03:46.631Z,97376.12
2019-03-16T22:06:18.193Z,97374.20
2019-03-16T22:08:49.849Z,97361.53
2019-03-16T22:11:21.421Z,97366.84
2019-03-16T22:13:53.085Z,97364.70
2019-03-16T22:16:24.677Z,97355.22
2019-03-16T22:18:56.243Z,97355.41
2019-03-16T22:21:27.969Z,97345.56
2019-03-16T22:23:59.551Z,97354.13
2019-03-16T22:26:31.126Z,97345.36
2019-03-16T22:29:02.821Z,97338.67
2019-03-16T22:31:34.465Z,97346.67
2019-03-16T22:34:06.199Z,97340.28
2019-03-16T22:36:37.795Z,97338.82
2019-03-16T22:39:09.681Z,97328.72
2019-03-16T22:41:41.291Z,97331.27
2019-03-16T22:44:12.893Z,97327.09
2019-03-16T22:46:44.730Z,97324.45
2019-03-16T22:49:16.366Z,97326.89
2019-03-16T22:51:48.105Z,97325.30
2019-03-16T22:54:19.675Z,97321.89
2019-03-16T22:56:51.241Z,97320.97
2019-03-16T22:59:22.830Z,97311.23
2019-03-16T23:01:54.486Z,97317.02
2019-03-16T23:04:26.050Z,97314.58
2019-03-16T23:06:57.657Z,97322.31
2019-03-16T23:09:29.607Z,97316.96
2019-03-16T23:12:01.165Z,97314.69
2019-03-16T23:14:32.846Z,97316.09
2019-03-16T23:17:04.428Z,97307.43
2019-03-16T23:19:36.197Z,97305.89
2019-03-16T23:22:08.850Z,97293.24
2019-03-16T23:24:40.456Z,97292.26
2019-03-16T23:27:12.032Z,97287.28
2019-03-16T23:29:43.711Z,97284.62
2019-03-16T23:32:18.157Z,97276.72
2019-03-16T23:34:49.791Z,97275.84
2019-03-16T23:37:21.337Z,97265.67
2019-03-16T23:39:52.985Z,97259.84
2019-03-16T23:42:24.551Z,97257.53
2019-03-16T23:44:56.146Z,97250.27
2019-03-16T23:47:27.807Z,97251.88
2019-03-16T23:49:59.385Z,97244.31
2019-03-16T23:52:30.963Z,97246.42
2019-03-16T23:55:02.543Z,97242.75
2019-03-16T23:57:34.092Z,97248.30
